Terminal Aerodrome Forecast
Issued by NWS

Home | Current Version | Previous Version | Text Only | Print | Product List | Glossary On
Versions: 1 2 3 4 5 6 7 8 9 10 11 12 13 14
476
FTUS46 KHNX 191720
TAFMCE
TAF
KMCE 191720Z 1918/2018 34010KT P6SM SCT100
     FM200600 02003KT P6SM SKC=

USA.gov is the U.S. government's official web portal to all federal, state and local government web resources and services.